Murau, Austria
Current Conditions -  °F | °C
As of 6:50 PM on Sunday 23 Nov 2014 (Local Time) from LOXZ Reporting Station
Haze Haze  
Wind Chill: 37°   Ceiling: 200
Heat Index: 37°   Visibility: 1.8mi
Dew Point: 37°   Wind: 1mph
Humidity: 100%   Direction: 330°NNW
Pressure: 30.33"   Gusts: NA
Location:  47.11°N, 14.17°E
Report Text: LOXZ 231650Z 33001KT 3000 BR OVC002ST 03/03 Q1027 RMK OVC
Loading
Personal Weather Stations






























Interactive Weather Map New forecast layout! Learn more

10-Day Weather Forecast

Advertisements
Track Severe Weather on mobile